Terminal Aerodrome Forecast
Issued by NWS

Home | Current Version | Previous Version | Text Only | Print | Product List | Glossary On
Versions: 1 2 3 4 5 6 7 8 9 10 11 12 13 14 15 16 17 18 19 20
000
FTAK31 PAJN 161140
TAFASI
TAF
PASI 161140Z 1612/1712 16025G38KT 3SM RA BR OVC025 WS020/18050KT
     FM161600 15018G30KT 4SM RA BR OVC015 WS020/18040KT
     FM162300 23015G25KT 5SM -RA BR OVC015
     FM170400 24007KT P6SM VCSH OVC030=

USA.gov is the U.S. government's official web portal to all federal, state and local government web resources and services.